createdAt,value
2022-10-06T00:00:40.087Z,56.23
2022-10-06T00:01:40.084Z,56.57
2022-10-06T00:02:40.086Z,59.47
2022-10-06T00:03:40.039Z,58.98
2022-10-06T00:04:40.032Z,55.15
2022-10-06T00:05:40.025Z,58.45
2022-10-06T00:06:40.039Z,56.39
2022-10-06T00:07:40.000Z,57.49
2022-10-06T00:08:40.012Z,57.34
2022-10-06T00:09:39.979Z,57.62
2022-10-06T00:10:39.979Z,55.79
2022-10-06T00:11:39.970Z,59.14
2022-10-06T00:12:39.986Z,58.67
2022-10-06T00:13:39.953Z,57.68
2022-10-06T00:14:39.941Z,56.74
2022-10-06T00:15:39.983Z,56.57
2022-10-06T00:16:39.927Z,58.17
2022-10-06T00:17:39.917Z,57.83
2022-10-06T00:18:39.927Z,55.11
2022-10-06T00:19:39.900Z,57.93
2022-10-06T00:20:39.909Z,57.36
2022-10-06T00:21:39.885Z,58.24
2022-10-06T00:22:39.871Z,55.23
2022-10-06T00:23:39.868Z,57.73
2022-10-06T00:24:39.862Z,57.56
2022-10-06T00:25:39.845Z,55.22
2022-10-06T00:26:39.871Z,55.42
2022-10-06T00:27:39.833Z,58.01
2022-10-06T00:28:39.862Z,57.50
2022-10-06T00:29:39.813Z,58.21
2022-10-06T00:30:39.801Z,57.13
2022-10-06T00:31:39.797Z,57.38
2022-10-06T00:32:39.805Z,55.12
2022-10-06T00:33:39.778Z,55.91
2022-10-06T00:34:39.805Z,56.81
2022-10-06T00:35:39.772Z,57.71
2022-10-06T00:36:39.755Z,59.73
2022-10-06T00:37:39.739Z,58.41
2022-10-06T00:38:39.759Z,57.78
2022-10-06T00:39:39.728Z,57.86
2022-10-06T00:40:39.727Z,59.00
2022-10-06T00:41:39.732Z,57.94
2022-10-06T00:42:39.708Z,56.66
2022-10-06T00:43:39.697Z,55.45
2022-10-06T00:44:39.694Z,56.71
2022-10-06T00:45:39.678Z,55.50
2022-10-06T00:46:39.713Z,56.63
2022-10-06T00:47:39.687Z,56.93
2022-10-06T00:48:39.659Z,56.38
2022-10-06T00:49:39.644Z,57.17
2022-10-06T00:50:39.625Z,59.78
2022-10-06T00:51:39.651Z,59.35
2022-10-06T00:52:39.617Z,58.50
2022-10-06T00:53:39.611Z,58.18
2022-10-06T00:54:39.617Z,56.81
2022-10-06T00:55:39.598Z,57.28
2022-10-06T00:56:39.592Z,57.81
2022-10-06T00:57:39.573Z,57.64
2022-10-06T00:58:39.554Z,57.44
2022-10-06T00:59:39.553Z,58.20
2022-10-06T01:00:39.577Z,59.02
2022-10-06T01:01:39.570Z,56.45
2022-10-06T01:02:39.635Z,58.57
2022-10-06T01:03:39.541Z,57.46
2022-10-06T01:04:39.520Z,57.85
2022-10-06T01:05:39.519Z,56.91
2022-10-06T01:06:39.489Z,58.56
2022-10-06T01:07:39.484Z,58.36
2022-10-06T01:08:39.487Z,58.36
2022-10-06T01:09:39.462Z,57.27
2022-10-06T01:10:39.459Z,57.71
2022-10-06T01:11:39.468Z,55.96
2022-10-06T01:12:39.470Z,58.58
2022-10-06T01:13:39.432Z,57.52
2022-10-06T01:14:39.444Z,56.76
2022-10-06T01:15:39.464Z,57.03
2022-10-06T01:16:39.422Z,56.31
2022-10-06T01:17:39.432Z,57.69
2022-10-06T01:18:39.420Z,57.56
2022-10-06T01:19:39.392Z,56.26
2022-10-06T01:20:39.391Z,60.35
2022-10-06T01:21:39.373Z,56.81
2022-10-06T01:22:39.372Z,57.58
2022-10-06T01:23:39.359Z,58.89
2022-10-06T01:24:39.366Z,59.11
2022-10-06T01:25:39.352Z,59.50
2022-10-06T01:26:39.339Z,56.63
2022-10-06T01:27:39.312Z,56.87
2022-10-06T01:28:39.420Z,58.29
2022-10-06T01:29:39.306Z,58.84
2022-10-06T01:30:39.326Z,56.85
2022-10-06T01:31:39.284Z,56.30
2022-10-06T01:32:39.279Z,56.70
2022-10-06T01:33:39.263Z,56.79
2022-10-06T01:34:39.258Z,58.48
2022-10-06T01:35:39.257Z,55.97
2022-10-06T01:36:39.264Z,59.26
2022-10-06T01:37:39.232Z,58.03
2022-10-06T01:38:39.223Z,56.47
2022-10-06T01:39:39.212Z,56.86
2022-10-06T01:40:39.213Z,57.32
2022-10-06T01:41:39.220Z,58.38
2022-10-06T01:42:39.194Z,57.52
2022-10-06T01:43:39.207Z,57.86
2022-10-06T01:44:39.179Z,57.89
2022-10-06T01:45:39.165Z,58.18
2022-10-06T01:46:39.238Z,58.23
2022-10-06T01:47:39.179Z,58.20
2022-10-06T01:48:39.138Z,57.79
2022-10-06T01:49:39.134Z,56.69
2022-10-06T01:50:39.122Z,57.07
2022-10-06T01:51:39.118Z,56.62
2022-10-06T01:53:46.128Z,57.82
2022-10-06T01:54:39.110Z,57.50
2022-10-06T01:55:39.095Z,58.21
2022-10-06T01:56:39.085Z,57.60
2022-10-06T01:57:39.075Z,56.61
2022-10-06T01:58:39.057Z,56.96
2022-10-06T01:59:39.065Z,56.94
2022-10-06T02:00:39.041Z,58.71
2022-10-06T02:01:39.122Z,57.83
2022-10-06T02:02:39.021Z,56.85
2022-10-06T02:03:39.014Z,54.64
2022-10-06T02:04:39.021Z,57.01
2022-10-06T02:05:38.988Z,57.18
2022-10-06T02:06:39.012Z,58.58
2022-10-06T02:07:38.980Z,59.72
2022-10-06T02:08:38.977Z,58.64
2022-10-06T02:09:38.988Z,59.92
2022-10-06T02:10:38.962Z,60.71
2022-10-06T02:11:38.945Z,58.96
2022-10-06T02:12:38.934Z,56.98
2022-10-06T02:13:38.931Z,58.36
2022-10-06T02:14:38.925Z,56.86
2022-10-06T02:15:39.004Z,59.11
2022-10-06T02:16:38.900Z,56.37
2022-10-06T02:17:38.896Z,54.86
2022-10-06T02:18:38.881Z,56.33
2022-10-06T02:19:38.879Z,55.46
2022-10-06T02:20:38.868Z,55.57
2022-10-06T02:21:38.886Z,57.76
2022-10-06T02:22:38.861Z,58.18
2022-10-06T02:23:38.851Z,55.70
2022-10-06T02:24:38.846Z,55.20
2022-10-06T02:25:38.829Z,57.07
2022-10-06T02:26:38.819Z,57.79
2022-10-06T02:27:38.821Z,59.28
2022-10-06T02:28:38.844Z,59.32
2022-10-06T02:29:38.803Z,60.57
2022-10-06T02:30:38.784Z,58.90
2022-10-06T02:31:38.856Z,56.46
2022-10-06T02:32:38.778Z,57.25
2022-10-06T02:33:38.765Z,59.79
2022-10-06T02:34:38.759Z,58.98
2022-10-06T02:35:38.740Z,57.00
2022-10-06T02:36:38.740Z,58.52
2022-10-06T02:37:38.752Z,59.03
2022-10-06T02:38:38.724Z,57.20
2022-10-06T02:39:38.723Z,58.20
2022-10-06T02:40:38.717Z,56.82
2022-10-06T02:41:38.703Z,58.58
2022-10-06T02:42:38.689Z,58.27
2022-10-06T02:43:38.709Z,56.67
2022-10-06T02:44:38.700Z,57.23
2022-10-06T02:45:38.664Z,59.32
2022-10-06T02:46:38.711Z,57.96
2022-10-06T02:47:38.657Z,58.35
2022-10-06T02:48:38.645Z,57.28
2022-10-06T02:49:38.658Z,57.34
2022-10-06T02:50:38.630Z,56.52
2022-10-06T02:51:38.624Z,59.09
2022-10-06T02:52:38.635Z,57.92
2022-10-06T02:53:38.598Z,58.27
2022-10-06T02:54:38.598Z,58.78
2022-10-06T02:55:38.592Z,57.50
2022-10-06T02:56:38.579Z,58.16
2022-10-06T02:57:38.569Z,57.02
2022-10-06T02:58:38.579Z,58.12
2022-10-06T02:59:38.546Z,58.11
2022-10-06T03:00:38.534Z,57.35
2022-10-06T03:01:38.668Z,57.44
2022-10-06T03:02:38.619Z,57.60
2022-10-06T03:03:38.508Z,56.74
2022-10-06T03:04:38.501Z,58.51
2022-10-06T03:05:38.511Z,57.89
2022-10-06T03:06:38.504Z,57.68
2022-10-06T03:07:38.477Z,58.03
2022-10-06T03:08:38.475Z,58.03
2022-10-06T03:09:38.463Z,59.29
2022-10-06T03:10:38.460Z,59.23
2022-10-06T03:11:38.475Z,57.64
2022-10-06T03:12:38.440Z,58.67
2022-10-06T03:13:38.437Z,59.41
2022-10-06T03:14:38.429Z,59.17
2022-10-06T03:15:38.419Z,58.99
2022-10-06T03:16:38.414Z,59.45
2022-10-06T03:17:38.420Z,59.72
2022-10-06T03:18:38.401Z,58.46
2022-10-06T03:19:38.383Z,57.97
2022-10-06T03:20:38.373Z,58.66
2022-10-06T03:21:38.375Z,57.86
2022-10-06T03:22:38.373Z,58.27
2022-10-06T03:23:38.367Z,59.88
2022-10-06T03:24:38.337Z,58.13
2022-10-06T03:25:38.334Z,59.98
2022-10-06T03:26:38.315Z,58.76
2022-10-06T03:27:38.330Z,58.40
2022-10-06T03:28:38.356Z,57.86
2022-10-06T03:29:38.297Z,58.67
2022-10-06T03:30:38.311Z,59.26
2022-10-06T03:31:38.343Z,59.17
2022-10-06T03:32:38.272Z,58.43
2022-10-06T03:33:38.269Z,59.15
2022-10-06T03:34:38.285Z,61.43
2022-10-06T03:35:38.268Z,59.51
2022-10-06T03:36:38.251Z,58.84
2022-10-06T03:37:38.229Z,60.00
2022-10-06T03:38:38.225Z,60.38
2022-10-06T03:39:38.226Z,59.88
2022-10-06T03:40:38.208Z,59.37
2022-10-06T03:41:38.216Z,59.08
2022-10-06T03:42:38.193Z,59.45
2022-10-06T03:43:38.172Z,58.92
2022-10-06T03:44:38.189Z,59.06
2022-10-06T03:45:38.199Z,59.87
2022-10-06T03:46:38.245Z,60.24
2022-10-06T03:47:38.140Z,61.06
2022-10-06T03:48:38.129Z,60.17
2022-10-06T03:49:38.123Z,59.04
2022-10-06T03:50:38.138Z,59.92
2022-10-06T03:51:38.111Z,58.75
2022-10-06T03:52:38.123Z,60.17
2022-10-06T03:53:38.085Z,60.44
2022-10-06T03:54:38.085Z,61.15
2022-10-06T03:55:38.074Z,59.60
2022-10-06T03:56:38.064Z,58.77
2022-10-06T03:57:38.053Z,58.70
2022-10-06T03:58:38.082Z,58.92
2022-10-06T03:59:38.042Z,57.92
2022-10-06T04:00:38.071Z,58.67
2022-10-06T04:01:38.108Z,60.70
2022-10-06T04:02:38.014Z,59.99
2022-10-06T04:03:38.021Z,61.69
2022-10-06T04:04:38.023Z,59.47
2022-10-06T04:05:37.990Z,59.64
2022-10-06T04:06:37.987Z,60.32
2022-10-06T04:07:37.998Z,59.23
2022-10-06T04:08:37.998Z,61.22
2022-10-06T04:09:37.965Z,60.45
2022-10-06T04:10:37.949Z,61.41
2022-10-06T04:11:37.948Z,61.54
2022-10-06T04:12:37.938Z,60.73
2022-10-06T04:13:37.931Z,60.61
2022-10-06T04:14:37.937Z,59.16
2022-10-06T04:15:37.904Z,60.88
2022-10-06T04:16:37.963Z,61.89
2022-10-06T04:17:37.896Z,59.17
2022-10-06T04:18:37.890Z,59.00
2022-10-06T04:19:37.884Z,60.58
2022-10-06T04:20:37.865Z,61.37
2022-10-06T04:21:37.859Z,57.63
2022-10-06T04:22:37.865Z,58.18
2022-10-06T04:23:37.837Z,61.51
2022-10-06T04:24:37.833Z,59.73
2022-10-06T04:25:37.817Z,61.13
2022-10-06T04:26:37.816Z,60.25
2022-10-06T04:27:37.835Z,61.16
2022-10-06T04:28:37.833Z,60.74
2022-10-06T04:29:37.793Z,59.68
2022-10-06T04:30:37.866Z,59.98
2022-10-06T04:31:37.835Z,61.95
2022-10-06T04:32:37.768Z,61.03
2022-10-06T04:33:37.774Z,60.25
2022-10-06T04:34:37.750Z,59.63
2022-10-06T04:35:37.732Z,60.87
2022-10-06T04:36:37.735Z,61.21
2022-10-06T04:37:37.737Z,61.29
2022-10-06T04:38:37.712Z,60.86
2022-10-06T04:39:37.719Z,62.43
2022-10-06T04:40:37.685Z,61.97
2022-10-06T04:41:37.684Z,60.93
2022-10-06T04:42:37.673Z,60.40
2022-10-06T04:43:37.672Z,61.25
2022-10-06T04:44:37.676Z,58.98
2022-10-06T04:45:37.675Z,61.25
2022-10-06T04:46:43.104Z,61.17
2022-10-06T04:47:38.643Z,60.52
2022-10-06T04:48:37.651Z,59.45
2022-10-06T04:49:37.622Z,60.07
2022-10-06T04:50:37.608Z,59.88
2022-10-06T04:51:37.603Z,60.72
2022-10-06T04:52:37.607Z,60.42
2022-10-06T04:53:37.585Z,60.81
2022-10-06T04:54:37.591Z,62.08
2022-10-06T04:55:37.573Z,62.06
2022-10-06T04:56:37.557Z,59.98
2022-10-06T04:57:37.545Z,60.39
2022-10-06T04:58:37.556Z,59.76
2022-10-06T04:59:37.531Z,60.55
2022-10-06T05:00:37.593Z,59.69
2022-10-06T05:01:37.525Z,61.58
2022-10-06T05:02:37.508Z,61.82
2022-10-06T05:03:37.491Z,61.41
2022-10-06T05:04:37.513Z,59.55
2022-10-06T05:05:37.481Z,60.43
2022-10-06T05:06:37.480Z,61.34
2022-10-06T05:07:37.476Z,59.26
2022-10-06T05:08:37.468Z,59.96
2022-10-06T05:09:37.444Z,61.01
2022-10-06T05:10:37.440Z,60.79
2022-10-06T05:11:37.443Z,61.27
2022-10-06T05:12:37.424Z,61.53
2022-10-06T05:13:37.423Z,60.79
2022-10-06T05:14:37.399Z,62.27
2022-10-06T05:15:37.392Z,61.73
2022-10-06T05:16:37.455Z,62.10
2022-10-06T05:17:37.406Z,62.14
2022-10-06T05:18:37.376Z,62.10
2022-10-06T05:19:37.389Z,62.21
2022-10-06T05:20:37.351Z,62.22
2022-10-06T05:21:37.350Z,62.59
2022-10-06T05:22:37.337Z,61.41
2022-10-06T05:23:37.333Z,62.23
2022-10-06T05:24:37.340Z,62.37
2022-10-06T05:25:37.300Z,62.15
2022-10-06T05:26:37.313Z,63.45
2022-10-06T05:27:37.298Z,62.76
2022-10-06T05:28:37.338Z,63.74
2022-10-06T05:29:37.280Z,64.07
2022-10-06T05:30:37.296Z,63.54
2022-10-06T05:31:37.288Z,63.04
2022-10-06T05:32:37.253Z,62.04
2022-10-06T05:33:37.241Z,63.18
2022-10-06T05:34:37.227Z,63.82
2022-10-06T05:35:37.244Z,62.91
2022-10-06T05:36:37.224Z,62.61
2022-10-06T05:37:37.225Z,61.43
2022-10-06T05:38:37.210Z,63.51
2022-10-06T05:39:37.189Z,61.87
2022-10-06T05:40:37.192Z,62.96
2022-10-06T05:41:37.194Z,62.80
2022-10-06T05:42:37.170Z,62.70
2022-10-06T05:43:37.168Z,62.20
2022-10-06T05:44:37.175Z,62.82
2022-10-06T05:45:37.200Z,63.95
2022-10-06T05:46:37.153Z,61.27
2022-10-06T05:47:37.178Z,61.68
2022-10-06T05:48:37.124Z,64.00
2022-10-06T05:49:37.117Z,62.48
2022-10-06T05:50:37.121Z,63.42
2022-10-06T05:51:37.096Z,64.87
2022-10-06T05:52:37.091Z,64.19
2022-10-06T05:53:37.098Z,63.68
2022-10-06T05:54:37.070Z,63.56
2022-10-06T05:55:37.054Z,64.91
2022-10-06T05:56:37.075Z,64.03
2022-10-06T05:57:37.038Z,63.15
2022-10-06T05:58:37.040Z,63.14
2022-10-06T05:59:37.062Z,63.64
2022-10-06T06:00:37.024Z,62.05
2022-10-06T06:01:37.120Z,63.21
2022-10-06T06:02:37.108Z,64.40
2022-10-06T06:03:36.983Z,64.05
2022-10-06T06:04:36.985Z,64.00
2022-10-06T06:05:36.995Z,64.89
2022-10-06T06:06:36.964Z,63.98
2022-10-06T06:07:36.961Z,62.89
2022-10-06T06:08:36.948Z,63.40
2022-10-06T06:09:37.055Z,62.93
2022-10-06T06:10:36.929Z,64.46
2022-10-06T06:11:36.932Z,65.07
2022-10-06T06:12:36.907Z,63.08
2022-10-06T06:13:36.903Z,63.09
2022-10-06T06:14:36.931Z,63.05
2022-10-06T06:15:36.875Z,62.51
2022-10-06T06:16:36.930Z,62.17
2022-10-06T06:17:36.867Z,62.46
2022-10-06T06:18:36.869Z,63.34
2022-10-06T06:19:36.855Z,62.20
2022-10-06T06:20:36.855Z,62.45
2022-10-06T06:21:36.844Z,62.16
2022-10-06T06:22:36.819Z,62.94
2022-10-06T06:23:36.807Z,64.11
2022-10-06T06:24:36.797Z,62.75
2022-10-06T06:25:36.859Z,63.37
2022-10-06T06:26:36.786Z,62.28
2022-10-06T06:27:36.767Z,62.90
2022-10-06T06:28:36.807Z,63.58
2022-10-06T06:29:36.752Z,60.23
2022-10-06T06:30:36.758Z,61.62
2022-10-06T06:31:36.790Z,61.88
2022-10-06T06:32:36.754Z,64.04
2022-10-06T06:33:36.722Z,63.74
2022-10-06T06:34:36.737Z,60.86
2022-10-06T06:35:36.705Z,59.44
2022-10-06T06:36:36.725Z,61.37
2022-10-06T06:37:36.687Z,60.52
2022-10-06T06:38:36.683Z,60.27
2022-10-06T06:39:36.674Z,60.16
2022-10-06T06:40:36.678Z,59.40
2022-10-06T06:41:36.654Z,59.77
2022-10-06T06:42:36.666Z,58.97
2022-10-06T06:43:36.640Z,58.54
2022-10-06T06:44:36.637Z,60.32
2022-10-06T06:45:36.620Z,60.68
2022-10-06T06:46:36.675Z,59.86
2022-10-06T06:47:36.613Z,60.87
2022-10-06T06:48:36.617Z,61.36
2022-10-06T06:49:36.613Z,60.24
2022-10-06T06:50:36.586Z,59.80
2022-10-06T06:51:36.581Z,59.41
2022-10-06T06:52:36.574Z,57.81
2022-10-06T06:53:36.568Z,59.85
2022-10-06T06:54:36.574Z,59.58
2022-10-06T06:55:36.569Z,59.09
2022-10-06T06:56:36.547Z,58.11
2022-10-06T06:57:36.555Z,56.97
2022-10-06T06:58:36.523Z,57.36
2022-10-06T06:59:36.536Z,57.80
2022-10-06T07:00:36.552Z,58.55
2022-10-06T07:01:36.656Z,57.71
2022-10-06T07:02:36.495Z,57.57
2022-10-06T07:03:56.765Z,57.27
2022-10-06T07:04:37.518Z,57.11
2022-10-06T07:05:36.467Z,59.01
2022-10-06T07:06:36.470Z,58.46
2022-10-06T07:07:36.459Z,57.38
2022-10-06T07:08:36.450Z,56.51
2022-10-06T07:09:36.464Z,59.34
2022-10-06T07:10:36.458Z,59.18
2022-10-06T07:11:36.434Z,59.86
2022-10-06T07:12:36.427Z,59.37
2022-10-06T07:13:36.409Z,57.97
2022-10-06T07:14:36.441Z,59.99
2022-10-06T07:15:36.443Z,60.28
2022-10-06T07:16:36.418Z,59.18
2022-10-06T07:17:36.390Z,58.89
2022-10-06T07:18:36.380Z,56.86
2022-10-06T07:19:36.372Z,56.53
2022-10-06T07:20:36.364Z,57.98
2022-10-06T07:21:36.356Z,59.55
2022-10-06T07:22:36.367Z,58.17
2022-10-06T07:23:36.380Z,58.40
2022-10-06T07:24:36.335Z,56.96
2022-10-06T07:25:36.328Z,57.41
2022-10-06T07:26:36.328Z,57.52
2022-10-06T07:27:36.325Z,56.75
2022-10-06T07:28:36.399Z,57.33
2022-10-06T07:29:36.299Z,58.59
2022-10-06T07:30:40.551Z,58.20
2022-10-06T07:31:36.355Z,57.87
2022-10-06T07:32:36.295Z,56.98
2022-10-06T07:33:36.274Z,57.33
2022-10-06T07:34:36.304Z,58.46
2022-10-06T07:35:36.270Z,56.74
2022-10-06T07:36:36.254Z,57.70
2022-10-06T07:37:36.252Z,59.44
2022-10-06T07:38:36.263Z,57.15
2022-10-06T07:39:36.233Z,56.81
2022-10-06T07:40:36.243Z,56.10
2022-10-06T07:41:36.220Z,55.37
2022-10-06T07:42:36.215Z,57.71
2022-10-06T07:43:36.220Z,58.15
2022-10-06T07:44:36.197Z,56.22
2022-10-06T07:45:36.308Z,56.78
2022-10-06T07:46:36.185Z,56.35
2022-10-06T07:47:36.183Z,56.36
2022-10-06T07:48:36.162Z,55.75
2022-10-06T07:49:36.175Z,57.16
2022-10-06T07:50:36.163Z,56.94
2022-10-06T07:51:36.173Z,55.16
2022-10-06T07:52:36.139Z,56.92
2022-10-06T07:53:36.128Z,56.98
2022-10-06T07:54:36.121Z,56.40
2022-10-06T07:55:36.131Z,55.17
2022-10-06T07:56:36.120Z,57.52
2022-10-06T07:57:36.106Z,56.90
2022-10-06T07:58:36.107Z,59.46
2022-10-06T07:59:36.088Z,58.14
2022-10-06T08:00:36.124Z,56.11
2022-10-06T08:01:36.125Z,58.34
2022-10-06T08:02:36.398Z,58.78
2022-10-06T08:03:36.069Z,59.42
2022-10-06T08:04:36.057Z,57.86
2022-10-06T08:05:36.050Z,58.36
2022-10-06T08:06:36.067Z,57.73
2022-10-06T08:07:36.038Z,57.40
2022-10-06T08:08:36.028Z,59.65
2022-10-06T08:09:36.011Z,60.03
2022-10-06T08:10:36.014Z,59.61
2022-10-06T08:11:35.996Z,60.38
2022-10-06T08:12:36.091Z,59.29
2022-10-06T08:13:35.983Z,60.34
2022-10-06T08:14:35.982Z,59.32
2022-10-06T08:15:35.982Z,60.06
2022-10-06T08:16:36.022Z,58.31
2022-10-06T08:17:35.953Z,58.15
2022-10-06T08:18:51.277Z,59.38
2022-10-06T08:19:36.937Z,58.25
2022-10-06T08:20:35.957Z,58.63
2022-10-06T08:21:35.974Z,57.30
2022-10-06T08:22:35.912Z,57.75
2022-10-06T08:23:42.932Z,58.77
2022-10-06T08:25:01.043Z,60.19
2022-10-06T08:25:36.898Z,58.44
2022-10-06T08:26:35.898Z,58.57
2022-10-06T08:27:35.903Z,56.38
2022-10-06T08:28:35.938Z,57.45
2022-10-06T08:29:35.861Z,58.32
2022-10-06T08:30:35.859Z,58.60
2022-10-06T08:31:35.876Z,57.43
2022-10-06T08:32:35.835Z,58.83
2022-10-06T08:33:35.857Z,57.57
2022-10-06T08:34:35.828Z,57.76
2022-10-06T08:35:35.820Z,55.93
2022-10-06T08:36:35.820Z,56.13
2022-10-06T08:37:35.808Z,56.34
2022-10-06T08:38:35.841Z,57.32
2022-10-06T08:39:35.790Z,55.96
2022-10-06T08:40:35.806Z,57.32
2022-10-06T08:41:35.783Z,55.31
2022-10-06T08:42:35.778Z,54.83
2022-10-06T08:43:35.759Z,54.75
2022-10-06T08:44:35.756Z,55.31
2022-10-06T08:45:38.731Z,55.96
2022-10-06T08:46:35.754Z,54.75
2022-10-06T08:47:35.761Z,55.67
2022-10-06T08:48:35.763Z,55.97
2022-10-06T08:49:35.742Z,57.17
2022-10-06T08:50:35.711Z,57.52
2022-10-06T08:51:35.732Z,57.33
2022-10-06T08:52:35.735Z,56.64
2022-10-06T08:53:35.691Z,56.60
2022-10-06T08:54:35.688Z,55.55
2022-10-06T08:55:35.670Z,56.00
2022-10-06T08:56:35.669Z,54.50
2022-10-06T08:57:35.663Z,55.02
2022-10-06T08:58:35.681Z,56.86
2022-10-06T08:59:35.669Z,56.25
2022-10-06T09:00:35.644Z,53.95
2022-10-06T09:01:35.675Z,54.20
2022-10-06T09:02:35.697Z,55.48
2022-10-06T09:03:35.623Z,57.60
2022-10-06T09:04:35.649Z,55.11
2022-10-06T09:05:35.624Z,54.13
2022-10-06T09:06:35.645Z,54.73
2022-10-06T09:07:35.610Z,56.65
2022-10-06T09:08:35.585Z,55.07
2022-10-06T09:09:35.593Z,54.40
2022-10-06T09:10:35.605Z,53.89
2022-10-06T09:11:35.583Z,55.58
2022-10-06T09:12:35.558Z,56.94
2022-10-06T09:13:35.568Z,55.65
2022-10-06T09:14:35.564Z,55.81
2022-10-06T09:15:35.538Z,56.79
2022-10-06T09:16:35.589Z,57.03
2022-10-06T09:17:35.527Z,57.05
2022-10-06T09:19:07.612Z,56.91
2022-10-06T09:19:36.520Z,59.13
2022-10-06T09:20:35.512Z,56.91
2022-10-06T09:21:35.534Z,56.79
2022-10-06T09:22:35.488Z,57.63
2022-10-06T09:23:35.478Z,56.72
2022-10-06T09:24:35.473Z,57.17
2022-10-06T09:25:35.475Z,57.02
2022-10-06T09:26:36.168Z,57.26
2022-10-06T09:27:35.464Z,57.18
2022-10-06T09:28:35.483Z,56.79
2022-10-06T09:29:35.440Z,57.20
2022-10-06T09:30:35.443Z,56.30
2022-10-06T09:31:35.449Z,56.16
2022-10-06T09:32:35.416Z,56.10
2022-10-06T09:33:35.425Z,55.62
2022-10-06T09:34:35.408Z,56.49
2022-10-06T09:35:35.401Z,56.99
2022-10-06T09:36:35.390Z,56.85
2022-10-06T09:37:35.377Z,57.96
2022-10-06T09:38:35.392Z,56.32
2022-10-06T09:39:35.375Z,56.70
2022-10-06T09:40:35.391Z,57.05
2022-10-06T09:41:35.352Z,57.93
2022-10-06T09:42:35.345Z,57.28
2022-10-06T09:43:35.326Z,56.40
2022-10-06T09:44:35.382Z,56.87
2022-10-06T09:45:35.312Z,57.62
2022-10-06T09:46:35.318Z,58.22
2022-10-06T09:47:35.291Z,57.46
2022-10-06T09:48:35.289Z,58.82
2022-10-06T09:49:35.286Z,58.71
2022-10-06T09:50:35.303Z,58.20
2022-10-06T09:51:35.273Z,58.58
2022-10-06T09:52:35.259Z,58.56
2022-10-06T09:53:37.646Z,58.98
2022-10-06T09:54:35.245Z,59.03
2022-10-06T09:55:35.249Z,58.82
2022-10-06T09:56:35.232Z,58.39
2022-10-06T09:57:35.213Z,57.58
2022-10-06T09:58:35.202Z,57.50
2022-10-06T09:59:39.985Z,56.79
2022-10-06T10:00:35.310Z,57.50
2022-10-06T10:01:35.218Z,57.32
2022-10-06T10:02:35.245Z,57.50
2022-10-06T10:03:35.169Z,57.89
2022-10-06T10:04:35.168Z,56.50
2022-10-06T10:05:35.151Z,55.93
2022-10-06T10:06:35.157Z,55.64
2022-10-06T10:07:35.161Z,57.61
2022-10-06T10:09:35.139Z,56.39
2022-10-06T10:10:35.130Z,57.68
2022-10-06T10:11:35.129Z,56.90
2022-10-06T10:12:35.105Z,58.25
2022-10-06T10:13:35.101Z,57.37
2022-10-06T10:14:35.118Z,56.67
2022-10-06T10:15:35.088Z,56.37
2022-10-06T10:16:35.185Z,56.16
2022-10-06T10:17:35.099Z,56.65
2022-10-06T10:18:35.057Z,56.17
2022-10-06T10:19:35.049Z,57.64
2022-10-06T10:20:35.052Z,57.11
2022-10-06T10:21:35.046Z,56.43
2022-10-06T10:22:35.060Z,56.35
2022-10-06T10:23:35.045Z,57.36
2022-10-06T10:24:35.022Z,57.83
2022-10-06T10:25:35.001Z,58.23
2022-10-06T10:26:35.010Z,59.04
2022-10-06T10:27:35.001Z,58.79
2022-10-06T10:28:35.096Z,57.10
2022-10-06T10:29:34.977Z,57.28
2022-10-06T10:30:34.972Z,56.93
2022-10-06T10:31:34.985Z,56.93
2022-10-06T10:32:34.954Z,57.88
2022-10-06T10:33:34.977Z,57.90
2022-10-06T10:34:34.945Z,58.03
2022-10-06T10:35:34.931Z,57.17
2022-10-06T10:36:34.937Z,57.95
2022-10-06T10:37:34.918Z,56.81
2022-10-06T10:38:34.923Z,57.44
2022-10-06T10:39:34.926Z,56.68
2022-10-06T10:40:34.902Z,56.99
2022-10-06T10:41:34.888Z,57.63
2022-10-06T10:42:34.888Z,56.63
2022-10-06T10:43:34.878Z,58.63
2022-10-06T10:44:34.897Z,58.29
2022-10-06T10:45:34.879Z,57.12
2022-10-06T10:46:34.943Z,57.37
2022-10-06T10:47:34.878Z,57.63
2022-10-06T10:48:34.848Z,57.53
2022-10-06T10:49:34.832Z,56.75
2022-10-06T10:50:34.874Z,56.70
2022-10-06T10:51:34.817Z,56.81
2022-10-06T10:52:34.814Z,57.79
2022-10-06T10:53:36.579Z,56.70
2022-10-06T10:54:34.824Z,56.77
2022-10-06T10:55:34.796Z,58.86
2022-10-06T10:56:34.817Z,57.27
2022-10-06T10:57:34.777Z,56.86
2022-10-06T10:58:34.793Z,57.09
2022-10-06T10:59:34.762Z,57.93
2022-10-06T11:00:34.816Z,58.34
2022-10-06T11:01:34.819Z,58.05
2022-10-06T11:02:34.768Z,57.14
2022-10-06T11:03:34.775Z,57.18
2022-10-06T11:04:34.735Z,57.76
2022-10-06T11:05:34.720Z,56.54
2022-10-06T11:06:34.723Z,56.25
2022-10-06T11:07:34.729Z,58.13
2022-10-06T11:08:34.700Z,58.03
2022-10-06T11:09:34.700Z,58.26
2022-10-06T11:10:34.688Z,57.16
2022-10-06T11:11:34.688Z,56.65
2022-10-06T11:12:34.700Z,58.81
2022-10-06T11:13:34.678Z,58.44
2022-10-06T11:14:34.704Z,57.85
2022-10-06T11:15:34.652Z,58.31
2022-10-06T11:16:34.704Z,56.48
2022-10-06T11:17:34.634Z,58.19
2022-10-06T11:18:34.643Z,57.94
2022-10-06T11:19:34.630Z,59.93
2022-10-06T11:20:34.611Z,59.68
2022-10-06T11:21:34.630Z,58.97
2022-10-06T11:22:34.602Z,58.12
2022-10-06T11:23:34.595Z,57.77
2022-10-06T11:24:34.591Z,58.15
2022-10-06T11:25:35.243Z,58.52
2022-10-06T11:26:34.572Z,58.40
2022-10-06T11:27:34.592Z,58.54
2022-10-06T11:28:34.623Z,58.54
2022-10-06T11:29:34.552Z,56.42
2022-10-06T11:30:34.549Z,57.79
2022-10-06T11:31:34.602Z,58.40
2022-10-06T11:32:34.522Z,59.09
2022-10-06T11:33:34.525Z,57.13
2022-10-06T11:34:34.505Z,57.45
2022-10-06T11:35:34.512Z,59.03
2022-10-06T11:36:34.502Z,58.97
2022-10-06T11:37:34.490Z,59.13
2022-10-06T11:38:34.489Z,58.13
2022-10-06T11:39:34.490Z,59.91
2022-10-06T11:40:34.467Z,59.24
2022-10-06T11:41:34.463Z,59.17
2022-10-06T11:42:34.457Z,59.11
2022-10-06T11:43:34.452Z,58.10
2022-10-06T11:44:34.456Z,57.50
2022-10-06T11:45:34.528Z,58.99
2022-10-06T11:46:35.746Z,58.06
2022-10-06T11:47:35.596Z,57.47
2022-10-06T11:48:34.411Z,57.81
2022-10-06T11:49:34.405Z,58.05
2022-10-06T11:50:34.421Z,58.24
2022-10-06T11:51:34.377Z,57.67
2022-10-06T11:52:34.401Z,57.90
2022-10-06T11:53:34.368Z,57.34
2022-10-06T11:54:34.364Z,57.64
2022-10-06T11:55:34.352Z,56.78
2022-10-06T11:56:34.352Z,56.66
2022-10-06T11:57:34.365Z,57.37
2022-10-06T11:58:42.595Z,57.12
2022-10-06T11:59:35.336Z,57.63
2022-10-06T12:00:34.328Z,56.56
2022-10-06T12:01:34.328Z,57.65
2022-10-06T12:02:34.419Z,56.98
2022-10-06T12:03:34.300Z,56.66
2022-10-06T12:04:34.307Z,57.37
2022-10-06T12:05:56.252Z,58.08
2022-10-06T12:06:35.284Z,56.76
2022-10-06T12:07:34.264Z,58.33
2022-10-06T12:08:34.272Z,57.41
2022-10-06T12:09:34.272Z,57.85
2022-10-06T12:10:34.279Z,56.21
2022-10-06T12:11:34.237Z,57.43
2022-10-06T12:12:34.234Z,57.72
2022-10-06T12:17:35.193Z,58.49
2022-10-06T12:18:34.189Z,56.84
2022-10-06T12:19:34.188Z,56.72
2022-10-06T12:20:34.189Z,56.66
2022-10-06T12:21:34.166Z,57.28
2022-10-06T12:22:34.154Z,58.86
2022-10-06T12:23:34.158Z,58.81
2022-10-06T12:24:34.160Z,58.39
2022-10-06T12:25:34.140Z,58.28
2022-10-06T12:26:34.172Z,57.50
2022-10-06T12:27:34.128Z,57.52
2022-10-06T12:28:34.182Z,56.42
2022-10-06T12:29:34.121Z,59.13
2022-10-06T12:30:34.165Z,58.69
2022-10-06T12:31:34.095Z,58.13
2022-10-06T12:32:34.126Z,57.16
2022-10-06T12:33:34.075Z,59.24
2022-10-06T12:34:34.077Z,59.09
2022-10-06T12:35:34.095Z,58.51
2022-10-06T12:36:34.058Z,57.73
2022-10-06T12:37:34.077Z,58.03
2022-10-06T12:38:34.052Z,58.63
2022-10-06T12:39:34.024Z,58.60
2022-10-06T12:40:34.050Z,59.51
2022-10-06T12:41:34.038Z,59.29
2022-10-06T12:42:34.013Z,60.39
2022-10-06T12:43:34.026Z,59.90
2022-10-06T12:44:33.994Z,58.98
2022-10-06T12:45:33.985Z,59.24
2022-10-06T12:46:34.062Z,58.69
2022-10-06T12:47:33.977Z,58.69
2022-10-06T12:48:33.987Z,59.01
2022-10-06T12:49:33.960Z,59.80
2022-10-06T12:50:33.948Z,59.43
2022-10-06T12:52:33.938Z,57.90
2022-10-06T12:53:33.952Z,57.94
2022-10-06T12:54:33.928Z,58.14
2022-10-06T12:55:33.910Z,59.34
2022-10-06T12:56:33.915Z,57.64
2022-10-06T12:57:33.898Z,57.28
2022-10-06T12:58:33.901Z,59.27
2022-10-06T12:59:33.927Z,57.65